sensor_id;sensor_type;location;lat;lon;timestamp;pressure;altitude;pressure_sealevel;temperature;humidity
25430;BME280;13360;48.152;-1.788;2023-10-08T00:00:46;102446.94;;;16.04;100.00
25430;BME280;13360;48.152;-1.788;2023-10-08T00:03:12;102442.19;;;15.99;100.00
25430;BME280;13360;48.152;-1.788;2023-10-08T00:05:38;102446.13;;;15.98;100.00
25430;BME280;13360;48.152;-1.788;2023-10-08T00:08:04;102450.31;;;15.96;100.00
25430;BME280;13360;48.152;-1.788;2023-10-08T00:10:34;102451.44;;;15.95;100.00
25430;BME280;13360;48.152;-1.788;2023-10-08T00:12:59;102440.88;;;15.92;100.00
25430;BME280;13360;48.152;-1.788;2023-10-08T00:15:24;102444.25;;;15.89;100.00
25430;BME280;13360;48.152;-1.788;2023-10-08T00:17:50;102431.75;;;15.86;100.00
25430;BME280;13360;48.152;-1.788;2023-10-08T00:20:18;102427.59;;;15.83;100.00
25430;BME280;13360;48.152;-1.788;2023-10-08T00:22:50;102425.94;;;15.82;100.00
25430;BME280;13360;48.152;-1.788;2023-10-08T00:25:15;102424.22;;;15.81;100.00
25430;BME280;13360;48.152;-1.788;2023-10-08T00:27:41;102423.16;;;15.77;100.00
25430;BME280;13360;48.152;-1.788;2023-10-08T00:30:06;102417.06;;;15.75;100.00
25430;BME280;13360;48.152;-1.788;2023-10-08T00:32:42;102439.63;;;15.74;100.00
25430;BME280;13360;48.152;-1.788;2023-10-08T00:35:08;102441.88;;;15.72;100.00
25430;BME280;13360;48.152;-1.788;2023-10-08T00:37:38;102446.38;;;15.68;100.00
25430;BME280;13360;48.152;-1.788;2023-10-08T00:40:05;102458.41;;;15.63;100.00
25430;BME280;13360;48.152;-1.788;2023-10-08T00:42:36;102472.03;;;15.65;100.00
25430;BME280;13360;48.152;-1.788;2023-10-08T00:45:02;102472.31;;;15.63;100.00
25430;BME280;13360;48.152;-1.788;2023-10-08T00:47:29;102479.00;;;15.62;100.00
25430;BME280;13360;48.152;-1.788;2023-10-08T00:49:59;102479.56;;;15.59;100.00
25430;BME280;13360;48.152;-1.788;2023-10-08T00:52:33;102480.94;;;15.56;100.00
25430;BME280;13360;48.152;-1.788;2023-10-08T00:55:22;102489.59;;;15.55;100.00
25430;BME280;13360;48.152;-1.788;2023-10-08T00:57:54;102500.19;;;15.53;100.00
25430;BME280;13360;48.152;-1.788;2023-10-08T01:00:22;102513.56;;;15.51;100.00
25430;BME280;13360;48.152;-1.788;2023-10-08T01:02:48;102519.72;;;15.48;100.00
25430;BME280;13360;48.152;-1.788;2023-10-08T01:05:20;102507.78;;;15.42;100.00
25430;BME280;13360;48.152;-1.788;2023-10-08T01:08:05;102509.75;;;15.42;100.00
25430;BME280;13360;48.152;-1.788;2023-10-08T01:10:31;102515.31;;;15.42;100.00
25430;BME280;13360;48.152;-1.788;2023-10-08T01:12:57;102519.47;;;15.39;100.00
25430;BME280;13360;48.152;-1.788;2023-10-08T01:15:25;102516.97;;;15.38;100.00
25430;BME280;13360;48.152;-1.788;2023-10-08T01:17:54;102517.84;;;15.33;100.00
25430;BME280;13360;48.152;-1.788;2023-10-08T01:20:30;102522.56;;;15.33;100.00
25430;BME280;13360;48.152;-1.788;2023-10-08T01:23:08;102515.34;;;15.32;100.00
25430;BME280;13360;48.152;-1.788;2023-10-08T01:25:38;102513.13;;;15.29;100.00
25430;BME280;13360;48.152;-1.788;2023-10-08T01:28:04;102495.34;;;15.24;100.00
25430;BME280;13360;48.152;-1.788;2023-10-08T01:31:07;102483.13;;;15.20;100.00
25430;BME280;13360;48.152;-1.788;2023-10-08T01:33:35;102478.09;;;15.17;100.00
25430;BME280;13360;48.152;-1.788;2023-10-08T01:36:04;102477.56;;;15.15;100.00
25430;BME280;13360;48.152;-1.788;2023-10-08T01:38:32;102483.13;;;15.15;100.00
25430;BME280;13360;48.152;-1.788;2023-10-08T01:40:58;102477.56;;;15.15;100.00
25430;BME280;13360;48.152;-1.788;2023-10-08T01:43:28;102467.53;;;15.14;100.00
25430;BME280;13360;48.152;-1.788;2023-10-08T01:45:54;102459.78;;;15.11;100.00
25430;BME280;13360;48.152;-1.788;2023-10-08T01:48:20;102464.78;;;15.09;100.00
25430;BME280;13360;48.152;-1.788;2023-10-08T01:50:55;102463.69;;;15.05;100.00
25430;BME280;13360;48.152;-1.788;2023-10-08T01:53:21;102459.81;;;15.01;100.00
25430;BME280;13360;48.152;-1.788;2023-10-08T01:55:46;102463.44;;;15.02;100.00
25430;BME280;13360;48.152;-1.788;2023-10-08T01:58:16;102458.72;;;15.02;100.00
25430;BME280;13360;48.152;-1.788;2023-10-08T02:00:43;102457.03;;;15.01;100.00
25430;BME280;13360;48.152;-1.788;2023-10-08T02:03:10;102459.81;;;14.96;100.00
25430;BME280;13360;48.152;-1.788;2023-10-08T02:05:35;102472.63;;;14.97;100.00
25430;BME280;13360;48.152;-1.788;2023-10-08T02:08:04;102473.75;;;14.96;100.00
25430;BME280;13360;48.152;-1.788;2023-10-08T02:10:29;102477.63;;;14.95;100.00
25430;BME280;13360;48.152;-1.788;2023-10-08T02:12:54;102449.56;;;14.91;100.00
25430;BME280;13360;48.152;-1.788;2023-10-08T02:15:20;102432.59;;;14.88;100.00
25430;BME280;13360;48.152;-1.788;2023-10-08T02:17:45;102415.38;;;14.86;100.00
25430;BME280;13360;48.152;-1.788;2023-10-08T02:20:11;102403.41;;;14.85;100.00
25430;BME280;13360;48.152;-1.788;2023-10-08T02:22:37;102395.06;;;14.85;100.00
25430;BME280;13360;48.152;-1.788;2023-10-08T02:25:03;102377.00;;;14.83;100.00
25430;BME280;13360;48.152;-1.788;2023-10-08T02:27:28;102370.91;;;14.81;100.00
25430;BME280;13360;48.152;-1.788;2023-10-08T02:29:54;102360.06;;;14.79;100.00
25430;BME280;13360;48.152;-1.788;2023-10-08T02:32:19;102348.66;;;14.76;100.00
25430;BME280;13360;48.152;-1.788;2023-10-08T02:34:47;102348.09;;;14.74;100.00
25430;BME280;13360;48.152;-1.788;2023-10-08T02:37:12;102342.53;;;14.74;100.00
25430;BME280;13360;48.152;-1.788;2023-10-08T02:39:38;102341.72;;;14.73;100.00
25430;BME280;13360;48.152;-1.788;2023-10-08T02:42:05;102333.66;;;14.72;100.00
25430;BME280;13360;48.152;-1.788;2023-10-08T02:44:35;102331.44;;;14.69;100.00
25430;BME280;13360;48.152;-1.788;2023-10-08T02:47:06;102322.00;;;14.64;100.00
25430;BME280;13360;48.152;-1.788;2023-10-08T02:49:33;102316.72;;;14.68;100.00
25430;BME280;13360;48.152;-1.788;2023-10-08T02:52:00;102312.56;;;14.66;100.00
25430;BME280;13360;48.152;-1.788;2023-10-08T02:54:25;102295.91;;;14.60;100.00
25430;BME280;13360;48.152;-1.788;2023-10-08T02:56:57;102291.47;;;14.54;100.00
25430;BME280;13360;48.152;-1.788;2023-10-08T02:59:27;102297.63;;;14.46;100.00
25430;BME280;13360;48.152;-1.788;2023-10-08T03:01:53;102295.69;;;14.42;100.00
25430;BME280;13360;48.152;-1.788;2023-10-08T03:04:21;102300.41;;;14.41;100.00
25430;BME280;13360;48.152;-1.788;2023-10-08T03:06:48;102294.31;;;14.44;100.00
25430;BME280;13360;48.152;-1.788;2023-10-08T03:09:18;102296.25;;;14.39;100.00
25430;BME280;13360;48.152;-1.788;2023-10-08T03:11:48;102313.47;;;14.35;100.00
25430;BME280;13360;48.152;-1.788;2023-10-08T03:14:14;102319.88;;;14.36;100.00
25430;BME280;13360;48.152;-1.788;2023-10-08T03:16:46;102321.28;;;14.33;100.00
25430;BME280;13360;48.152;-1.788;2023-10-08T03:19:13;102325.47;;;14.31;100.00
25430;BME280;13360;48.152;-1.788;2023-10-08T03:21:43;102322.97;;;14.29;100.00
25430;BME280;13360;48.152;-1.788;2023-10-08T03:24:14;102335.47;;;14.27;100.00
25430;BME280;13360;48.152;-1.788;2023-10-08T03:26:54;102338.81;;;14.29;100.00
25430;BME280;13360;48.152;-1.788;2023-10-08T03:29:30;102343.81;;;14.27;100.00
25430;BME280;13360;48.152;-1.788;2023-10-08T03:31:55;102345.22;;;14.24;100.00
25430;BME280;13360;48.152;-1.788;2023-10-08T03:34:21;102330.81;;;14.17;100.00
25430;BME280;13360;48.152;-1.788;2023-10-08T03:36:52;102339.97;;;14.18;100.00
25430;BME280;13360;48.152;-1.788;2023-10-08T03:39:24;102326.06;;;14.13;100.00
25430;BME280;13360;48.152;-1.788;2023-10-08T03:42:06;102299.69;;;14.10;100.00
25430;BME280;13360;48.152;-1.788;2023-10-08T03:44:34;102299.41;;;14.07;100.00
25430;BME280;13360;48.152;-1.788;2023-10-08T03:47:02;102285.25;;;14.03;100.00
25430;BME280;13360;48.152;-1.788;2023-10-08T03:49:35;102289.44;;;14.00;100.00
25430;BME280;13360;48.152;-1.788;2023-10-08T03:52:02;102286.13;;;13.98;100.00
25430;BME280;13360;48.152;-1.788;2023-10-08T03:54:29;102284.47;;;13.97;100.00
25430;BME280;13360;48.152;-1.788;2023-10-08T03:56:54;102281.69;;;13.97;100.00
25430;BME280;13360;48.152;-1.788;2023-10-08T03:59:20;102279.44;;;13.94;100.00
25430;BME280;13360;48.152;-1.788;2023-10-08T04:01:55;102280.56;;;13.98;100.00
25430;BME280;13360;48.152;-1.788;2023-10-08T04:04:24;102275.56;;;14.00;100.00
25430;BME280;13360;48.152;-1.788;2023-10-08T04:06:56;102283.34;;;13.98;100.00
25430;BME280;13360;48.152;-1.788;2023-10-08T04:09:41;102282.78;;;13.96;100.00
25430;BME280;13360;48.152;-1.788;2023-10-08T04:12:07;102283.34;;;13.93;100.00
25430;BME280;13360;48.152;-1.788;2023-10-08T04:14:35;102297.78;;;13.90;100.00
25430;BME280;13360;48.152;-1.788;2023-10-08T04:17:01;102292.25;;;13.85;100.00
25430;BME280;13360;48.152;-1.788;2023-10-08T04:19:26;102304.19;;;13.86;100.00
25430;BME280;13360;48.152;-1.788;2023-10-08T04:21:54;102321.13;;;13.84;100.00
25430;BME280;13360;48.152;-1.788;2023-10-08T04:24:20;102331.97;;;13.86;100.00
25430;BME280;13360;48.152;-1.788;2023-10-08T04:26:45;102330.88;;;13.82;100.00
25430;BME280;13360;48.152;-1.788;2023-10-08T04:29:11;102338.09;;;13.83;100.00
25430;BME280;13360;48.152;-1.788;2023-10-08T04:31:41;102346.13;;;13.84;100.00
25430;BME280;13360;48.152;-1.788;2023-10-08T04:34:19;102351.44;;;13.81;100.00
25430;BME280;13360;48.152;-1.788;2023-10-08T04:36:47;102352.00;;;13.78;100.00
25430;BME280;13360;48.152;-1.788;2023-10-08T04:39:19;102371.72;;;13.76;100.00
25430;BME280;13360;48.152;-1.788;2023-10-08T04:41:48;102371.13;;;13.74;100.00
25430;BME280;13360;48.152;-1.788;2023-10-08T04:44:18;102370.88;;;13.76;100.00
25430;BME280;13360;48.152;-1.788;2023-10-08T04:46:44;102369.22;;;13.75;100.00
25430;BME280;13360;48.152;-1.788;2023-10-08T04:49:13;102371.13;;;13.74;100.00
25430;BME280;13360;48.152;-1.788;2023-10-08T04:51:51;102368.34;;;13.74;100.00
25430;BME280;13360;48.152;-1.788;2023-10-08T04:54:19;102353.09;;;13.66;100.00
25430;BME280;13360;48.152;-1.788;2023-10-08T04:56:45;102351.72;;;13.64;100.00
25430;BME280;13360;48.152;-1.788;2023-10-08T04:59:10;102340.59;;;13.64;100.00
25430;BME280;13360;48.152;-1.788;2023-10-08T05:01:39;102340.06;;;13.62;100.00
25430;BME280;13360;48.152;-1.788;2023-10-08T05:04:12;102329.78;;;13.62;100.00
25430;BME280;13360;48.152;-1.788;2023-10-08T05:06:52;102326.47;;;13.55;100.00
25430;BME280;13360;48.152;-1.788;2023-10-08T05:09:26;102322.28;;;13.53;100.00
25430;BME280;13360;48.152;-1.788;2023-10-08T05:12:04;102329.53;;;13.54;100.00
25430;BME280;13360;48.152;-1.788;2023-10-08T05:15:01;102334.47;;;13.52;100.00
25430;BME280;13360;48.152;-1.788;2023-10-08T05:17:42;102332.53;;;13.52;100.00
25430;BME280;13360;48.152;-1.788;2023-10-08T05:20:31;102343.38;;;13.49;100.00
25430;BME280;13360;48.152;-1.788;2023-10-08T05:23:23;102346.72;;;13.46;100.00
25430;BME280;13360;48.152;-1.788;2023-10-08T05:25:49;102365.31;;;13.45;100.00
25430;BME280;13360;48.152;-1.788;2023-10-08T05:28:34;102366.69;;;13.42;100.00
25430;BME280;13360;48.152;-1.788;2023-10-08T05:31:07;102375.31;;;13.41;100.00
25430;BME280;13360;48.152;-1.788;2023-10-08T05:33:38;102371.16;;;13.38;100.00
25430;BME280;13360;48.152;-1.788;2023-10-08T05:36:22;102388.06;;;13.37;100.00
25430;BME280;13360;48.152;-1.788;2023-10-08T05:39:01;102401.13;;;13.36;100.00
25430;BME280;13360;48.152;-1.788;2023-10-08T05:41:29;102399.44;;;13.35;100.00
25430;BME280;13360;48.152;-1.788;2023-10-08T05:44:04;102400.28;;;13.36;100.00
25430;BME280;13360;48.152;-1.788;2023-10-08T05:46:39;102400.28;;;13.36;100.00
25430;BME280;13360;48.152;-1.788;2023-10-08T05:49:12;102406.38;;;13.33;100.00
25430;BME280;13360;48.152;-1.788;2023-10-08T05:51:38;102411.34;;;13.31;100.00
25430;BME280;13360;48.152;-1.788;2023-10-08T05:54:16;102418.00;;;13.30;100.00
25430;BME280;13360;48.152;-1.788;2023-10-08T06:07:41;102464.34;;;13.24;100.00
25430;BME280;13360;48.152;-1.788;2023-10-08T06:10:21;102475.72;;;13.23;100.00
25430;BME280;13360;48.152;-1.788;2023-10-08T06:15:34;102488.22;;;13.25;100.00
25430;BME280;13360;48.152;-1.788;2023-10-08T06:18:12;102496.81;;;13.24;100.00
25430;BME280;13360;48.152;-1.788;2023-10-08T06:20:39;102495.97;;;13.18;100.00
25430;BME280;13360;48.152;-1.788;2023-10-08T06:23:08;102509.53;;;13.15;100.00
25430;BME280;13360;48.152;-1.788;2023-10-08T06:25:33;102522.00;;;13.12;100.00
25430;BME280;13360;48.152;-1.788;2023-10-08T06:28:09;102512.53;;;13.08;100.00
25430;BME280;13360;48.152;-1.788;2023-10-08T06:30:35;102519.19;;;13.07;100.00
25430;BME280;13360;48.152;-1.788;2023-10-08T06:33:00;102520.31;;;13.11;100.00
25430;BME280;13360;48.152;-1.788;2023-10-08T06:35:26;102516.97;;;13.09;100.00
25430;BME280;13360;48.152;-1.788;2023-10-08T06:37:53;102515.31;;;13.08;100.00
25430;BME280;13360;48.152;-1.788;2023-10-08T06:40:24;102512.53;;;13.08;100.00
25430;BME280;13360;48.152;-1.788;2023-10-08T06:43:15;102522.78;;;13.07;100.00
25430;BME280;13360;48.152;-1.788;2023-10-08T06:45:42;102531.13;;;13.07;100.00
25430;BME280;13360;48.152;-1.788;2023-10-08T06:48:11;102533.63;;;13.09;100.00
25430;BME280;13360;48.152;-1.788;2023-10-08T06:50:52;102543.34;;;13.11;100.00
25430;BME280;13360;48.152;-1.788;2023-10-08T06:53:22;102551.94;;;13.10;100.00
25430;BME280;13360;48.152;-1.788;2023-10-08T06:55:48;102566.63;;;13.10;100.00
25430;BME280;13360;48.152;-1.788;2023-10-08T06:58:13;102579.72;;;13.15;100.00
25430;BME280;13360;48.152;-1.788;2023-10-08T07:00:39;102593.09;;;13.18;100.00
25430;BME280;13360;48.152;-1.788;2023-10-08T07:03:08;102603.06;;;13.19;100.00
25430;BME280;13360;48.152;-1.788;2023-10-08T07:05:40;102629.44;;;13.22;100.00
25430;BME280;13360;48.152;-1.788;2023-10-08T07:08:10;102634.72;;;13.23;100.00
25430;BME280;13360;48.152;-1.788;2023-10-08T07:10:38;102650.00;;;13.26;100.00
25430;BME280;13360;48.152;-1.788;2023-10-08T07:13:03;102654.44;;;13.27;100.00
25430;BME280;13360;48.152;-1.788;2023-10-08T07:15:29;102677.22;;;13.29;100.00
25430;BME280;13360;48.152;-1.788;2023-10-08T07:17:55;102691.66;;;13.31;100.00
25430;BME280;13360;48.152;-1.788;2023-10-08T07:20:20;102768.84;;;13.34;100.00
25430;BME280;13360;48.152;-1.788;2023-10-08T07:22:49;102858.53;;;13.34;100.00
25430;BME280;13360;48.152;-1.788;2023-10-08T07:25:22;102876.88;;;13.40;100.00
25430;BME280;13360;48.152;-1.788;2023-10-08T07:27:47;102901.59;;;13.42;100.00
25430;BME280;13360;48.152;-1.788;2023-10-08T07:30:13;102908.03;;;13.48;100.00
25430;BME280;13360;48.152;-1.788;2023-10-08T07:32:39;102928.59;;;13.52;100.00
25430;BME280;13360;48.152;-1.788;2023-10-08T07:35:04;102969.22;;;13.58;100.00
25430;BME280;13360;48.152;-1.788;2023-10-08T07:37:45;102967.31;;;13.63;100.00
25430;BME280;13360;48.152;-1.788;2023-10-08T07:40:10;102980.41;;;13.68;100.00
25430;BME280;13360;48.152;-1.788;2023-10-08T07:42:38;102999.59;;;13.69;100.00
25430;BME280;13360;48.152;-1.788;2023-10-08T07:45:03;103014.38;;;13.75;100.00
25430;BME280;13360;48.152;-1.788;2023-10-08T07:47:29;103055.25;;;13.80;100.00
25430;BME280;13360;48.152;-1.788;2023-10-08T07:49:55;103071.44;;;13.88;100.00
25430;BME280;13360;48.152;-1.788;2023-10-08T07:52:20;103104.81;;;13.93;100.00
25430;BME280;13360;48.152;-1.788;2023-10-08T07:54:46;103195.31;;;14.11;100.00
25430;BME280;13360;48.152;-1.788;2023-10-08T07:57:12;103277.69;;;14.17;100.00
25430;BME280;13360;48.152;-1.788;2023-10-08T07:59:42;103291.34;;;14.18;100.00
25430;BME280;13360;48.152;-1.788;2023-10-08T08:02:21;103301.41;;;14.24;100.00
25430;BME280;13360;48.152;-1.788;2023-10-08T08:04:52;103318.13;;;14.29;100.00
25430;BME280;13360;48.152;-1.788;2023-10-08T08:07:18;103361.66;;;14.41;100.00
25430;BME280;13360;48.152;-1.788;2023-10-08T08:09:47;103402.16;;;14.53;100.00
25430;BME280;13360;48.152;-1.788;2023-10-08T08:12:20;103441.31;;;14.69;100.00
25430;BME280;13360;48.152;-1.788;2023-10-08T08:14:46;103482.19;;;14.90;100.00
25430;BME280;13360;48.152;-1.788;2023-10-08T08:17:13;103489.63;;;15.06;100.00
25430;BME280;13360;48.152;-1.788;2023-10-08T08:19:45;103505.16;;;15.24;100.00
25430;BME280;13360;48.152;-1.788;2023-10-08T08:22:14;103519.59;;;15.48;100.00
25430;BME280;13360;48.152;-1.788;2023-10-08T08:24:46;103542.41;;;15.67;100.00
25430;BME280;13360;48.152;-1.788;2023-10-08T08:27:12;103548.44;;;15.85;100.00
25430;BME280;13360;48.152;-1.788;2023-10-08T08:29:49;103570.41;;;16.14;100.00
25430;BME280;13360;48.152;-1.788;2023-10-08T08:32:14;103589.88;;;16.41;100.00
25430;BME280;13360;48.152;-1.788;2023-10-08T08:34:44;103592.63;;;16.68;100.00
25430;BME280;13360;48.152;-1.788;2023-10-08T08:37:12;103617.59;;;16.90;100.00
25430;BME280;13360;48.152;-1.788;2023-10-08T08:39:38;103633.91;;;17.13;100.00
25430;BME280;13360;48.152;-1.788;2023-10-08T08:42:03;103605.19;;;17.23;100.00
25430;BME280;13360;48.152;-1.788;2023-10-08T08:44:29;103591.28;;;17.38;100.00
25430;BME280;13360;48.152;-1.788;2023-10-08T08:46:55;103555.00;;;17.53;100.00
25430;BME280;13360;48.152;-1.788;2023-10-08T08:49:23;103545.00;;;17.78;100.00
25430;BME280;13360;48.152;-1.788;2023-10-08T08:51:49;103538.28;;;18.09;100.00
25430;BME280;13360;48.152;-1.788;2023-10-08T08:54:18;103506.09;;;18.32;100.00
25430;BME280;13360;48.152;-1.788;2023-10-08T08:56:44;103426.03;;;18.46;100.00
25430;BME280;13360;48.152;-1.788;2023-10-08T08:59:10;103409.09;;;18.82;100.00
25430;BME280;13360;48.152;-1.788;2023-10-08T09:01:39;103329.72;;;19.02;100.00
25430;BME280;13360;48.152;-1.788;2023-10-08T09:04:05;103252.28;;;19.16;100.00
25430;BME280;13360;48.152;-1.788;2023-10-08T09:06:33;103143.44;;;19.28;100.00
25430;BME280;13360;48.152;-1.788;2023-10-08T09:08:59;103003.88;;;19.30;100.00
25430;BME280;13360;48.152;-1.788;2023-10-08T09:11:41;102969.41;;;19.48;100.00
25430;BME280;13360;48.152;-1.788;2023-10-08T09:14:08;102881.84;;;19.57;100.00
25430;BME280;13360;48.152;-1.788;2023-10-08T09:16:35;102817.75;;;19.69;100.00
25430;BME280;13360;48.152;-1.788;2023-10-08T09:19:01;102816.31;;;19.99;100.00
25430;BME280;13360;48.152;-1.788;2023-10-08T09:21:27;102698.28;;;20.23;100.00
25430;BME280;13360;48.152;-1.788;2023-10-08T09:23:52;102577.41;;;20.19;100.00
25430;BME280;13360;48.152;-1.788;2023-10-08T09:26:25;102494.22;;;20.15;100.00
25430;BME280;13360;48.152;-1.788;2023-10-08T09:28:54;102484.13;;;20.36;100.00
25430;BME280;13360;48.152;-1.788;2023-10-08T09:31:22;102460.72;;;20.40;100.00
25430;BME280;13360;48.152;-1.788;2023-10-08T09:33:55;102449.75;;;20.53;100.00
25430;BME280;13360;48.152;-1.788;2023-10-08T09:36:20;102428.34;;;20.65;100.00
25430;BME280;13360;48.152;-1.788;2023-10-08T09:38:56;102388.69;;;20.67;100.00
25430;BME280;13360;48.152;-1.788;2023-10-08T09:41:22;102361.63;;;20.80;100.00
25430;BME280;13360;48.152;-1.788;2023-10-08T09:43:48;102337.53;;;20.87;100.00
25430;BME280;13360;48.152;-1.788;2023-10-08T09:48:41;102285.84;;;20.97;100.00
25430;BME280;13360;48.152;-1.788;2023-10-08T09:51:09;102256.09;;;20.96;100.00
25430;BME280;13360;48.152;-1.788;2023-10-08T09:56:30;102240.06;;;21.14;100.00
25430;BME280;13360;48.152;-1.788;2023-10-08T09:58:56;102245.69;;;21.14;100.00
25430;BME280;13360;48.152;-1.788;2023-10-08T10:01:21;102247.66;;;21.13;100.00
25430;BME280;13360;48.152;-1.788;2023-10-08T10:03:47;102217.75;;;21.00;100.00
25430;BME280;13360;48.152;-1.788;2023-10-08T10:06:15;102221.41;;;20.92;100.00
25430;BME280;13360;48.152;-1.788;2023-10-08T10:08:42;102194.16;;;20.84;100.00
25430;BME280;13360;48.152;-1.788;2023-10-08T10:11:08;102217.94;;;20.78;100.00
25430;BME280;13360;48.152;-1.788;2023-10-08T10:13:39;102205.22;;;20.72;100.00
25430;BME280;13360;48.152;-1.788;2023-10-08T10:16:06;102196.31;;;20.69;100.00
25430;BME280;13360;48.152;-1.788;2023-10-08T10:18:33;102186.56;;;20.67;100.00
25430;BME280;13360;48.152;-1.788;2023-10-08T10:20:59;102183.91;;;20.70;100.00
25430;BME280;13360;48.152;-1.788;2023-10-08T10:23:38;102193.34;;;20.66;100.00
25430;BME280;13360;48.152;-1.788;2023-10-08T10:31:40;102200.59;;;20.58;100.00
25430;BME280;13360;48.152;-1.788;2023-10-08T10:34:12;102227.34;;;20.64;100.00
25430;BME280;13360;48.152;-1.788;2023-10-08T10:36:38;102208.69;;;20.60;100.00
25430;BME280;13360;48.152;-1.788;2023-10-08T10:39:05;102233.94;;;20.51;100.00
25430;BME280;13360;48.152;-1.788;2023-10-08T10:41:47;102199.75;;;20.49;100.00
25430;BME280;13360;48.152;-1.788;2023-10-08T10:44:14;102186.56;;;20.50;100.00
25430;BME280;13360;48.152;-1.788;2023-10-08T10:46:42;102184.09;;;20.48;100.00
25430;BME280;13360;48.152;-1.788;2023-10-08T10:49:08;102200.44;;;20.46;100.00
25430;BME280;13360;48.152;-1.788;2023-10-08T10:51:44;102216.13;;;20.47;100.00
25430;BME280;13360;48.152;-1.788;2023-10-08T10:54:09;102207.34;;;20.49;100.00
25430;BME280;13360;48.152;-1.788;2023-10-08T10:56:35;102168.22;;;20.52;100.00
25430;BME280;13360;48.152;-1.788;2023-10-08T10:59:08;102180.13;;;20.49;100.00
25430;BME280;13360;48.152;-1.788;2023-10-08T11:01:52;102208.34;;;20.53;100.00
25430;BME280;13360;48.152;-1.788;2023-10-08T11:04:18;102221.41;;;20.49;100.00
25430;BME280;13360;48.152;-1.788;2023-10-08T11:06:46;102181.44;;;20.52;100.00
25430;BME280;13360;48.152;-1.788;2023-10-08T11:09:12;102187.56;;;20.62;100.00
25430;BME280;13360;48.152;-1.788;2023-10-08T11:12:01;102222.22;;;20.58;100.00
25430;BME280;13360;48.152;-1.788;2023-10-08T11:14:27;102205.53;;;20.61;100.00
25430;BME280;13360;48.152;-1.788;2023-10-08T11:16:52;102183.44;;;20.68;100.00
25430;BME280;13360;48.152;-1.788;2023-10-08T11:19:21;102223.88;;;20.59;100.00
25430;BME280;13360;48.152;-1.788;2023-10-08T11:21:52;102220.41;;;20.53;100.00
25430;BME280;13360;48.152;-1.788;2023-10-08T11:24:30;102195.97;;;20.54;100.00
25430;BME280;13360;48.152;-1.788;2023-10-08T11:26:58;102178.47;;;20.65;100.00
25430;BME280;13360;48.152;-1.788;2023-10-08T11:29:51;102176.66;;;20.69;100.00
25430;BME280;13360;48.152;-1.788;2023-10-08T11:32:22;102181.44;;;20.78;100.00
25430;BME280;13360;48.152;-1.788;2023-10-08T11:34:54;102167.41;;;20.86;100.00
25430;BME280;13360;48.152;-1.788;2023-10-08T11:37:26;102163.41;;;21.05;100.00
25430;BME280;13360;48.152;-1.788;2023-10-08T11:39:51;102156.78;;;21.00;100.00
25430;BME280;13360;48.152;-1.788;2023-10-08T11:42:18;102171.84;;;20.96;100.00
25430;BME280;13360;48.152;-1.788;2023-10-08T11:44:58;102164.06;;;20.93;100.00
25430;BME280;13360;48.152;-1.788;2023-10-08T11:47:42;102153.84;;;20.88;100.00
25430;BME280;13360;48.152;-1.788;2023-10-08T11:50:09;102200.75;;;20.88;100.00
25430;BME280;13360;48.152;-1.788;2023-10-08T11:52:42;102182.94;;;20.84;100.00
25430;BME280;13360;48.152;-1.788;2023-10-08T11:55:10;102151.00;;;20.97;100.00
25430;BME280;13360;48.152;-1.788;2023-10-08T11:57:42;102183.25;;;20.91;100.00
25430;BME280;13360;48.152;-1.788;2023-10-08T12:00:11;102190.69;;;20.87;100.00
25430;BME280;13360;48.152;-1.788;2023-10-08T12:02:47;102139.28;;;20.95;100.00
25430;BME280;13360;48.152;-1.788;2023-10-08T12:05:12;102128.06;;;20.95;100.00
25430;BME280;13360;48.152;-1.788;2023-10-08T12:07:44;102126.56;;;20.97;100.00
25430;BME280;13360;48.152;-1.788;2023-10-08T12:10:10;102149.38;;;20.96;100.00
25430;BME280;13360;48.152;-1.788;2023-10-08T12:12:36;102171.34;;;20.94;100.00
25430;BME280;13360;48.152;-1.788;2023-10-08T12:15:01;102123.41;;;21.08;100.00
25430;BME280;13360;48.152;-1.788;2023-10-08T12:17:28;102123.25;;;21.04;100.00
25430;BME280;13360;48.152;-1.788;2023-10-08T12:20:02;102125.53;;;21.02;100.00
25430;BME280;13360;48.152;-1.788;2023-10-08T12:22:37;102159.44;;;20.97;100.00
25430;BME280;13360;48.152;-1.788;2023-10-08T12:25:02;102151.34;;;20.95;100.00
25430;BME280;13360;48.152;-1.788;2023-10-08T12:27:29;102137.13;;;21.00;100.00
25430;BME280;13360;48.152;-1.788;2023-10-08T12:29:55;102109.03;;;21.09;100.00
25430;BME280;13360;48.152;-1.788;2023-10-08T12:32:23;102137.13;;;21.09;100.00
25430;BME280;13360;48.152;-1.788;2023-10-08T12:34:51;102143.41;;;21.06;100.00
25430;BME280;13360;48.152;-1.788;2023-10-08T12:37:18;102148.53;;;21.04;100.00
25430;BME280;13360;48.152;-1.788;2023-10-08T12:39:44;102111.50;;;21.11;100.00
25430;BME280;13360;48.152;-1.788;2023-10-08T12:42:36;102092.47;;;21.16;100.00
25430;BME280;13360;48.152;-1.788;2023-10-08T12:45:04;102101.88;;;21.20;100.00
25430;BME280;13360;48.152;-1.788;2023-10-08T12:47:36;102143.06;;;21.08;100.00
25430;BME280;13360;48.152;-1.788;2023-10-08T12:50:02;102142.91;;;20.95;100.00
25430;BME280;13360;48.152;-1.788;2023-10-08T12:52:32;102148.56;;;20.87;100.00
25430;BME280;13360;48.152;-1.788;2023-10-08T12:54:59;102109.06;;;20.92;100.00
25430;BME280;13360;48.152;-1.788;2023-10-08T12:57:28;102148.56;;;20.87;100.00
25430;BME280;13360;48.152;-1.788;2023-10-08T12:59:57;102123.78;;;20.89;100.00
25430;BME280;13360;48.152;-1.788;2023-10-08T13:02:24;102085.19;;;21.15;100.00
25430;BME280;13360;48.152;-1.788;2023-10-08T13:04:53;102073.97;;;21.15;100.00
25430;BME280;13360;48.152;-1.788;2023-10-08T13:07:20;102110.16;;;21.17;100.00